Latest Weather Observations for Warruwi

IDD60801

Issued at 11:05 am CST Saturday 23 August 2014 (issued every 30 minutes, with the page automatically refreshed every 10 minutes)

About weather observations | Map of weather stations | Latest weather observations for NT | Other Formats
Station Details ID: 014401 Name: WARRUWI AIRPORT Lat: -11.65 Lon: 133.38 Height: 19.2 m
Data from the previous 72 hours. | See also: Recent months at Warruwi
Date/Time
CST
Temp
°C
App
Temp
°C
Dew
Point
Rel
Hum
%
Delta-T
°C
Wind Press
QNH
hPa
Press
MSL
hPa
Rain
since 9 am
mm
Dir
 
Spd
km/h
Gust
km/h
Spd
kts
Gust
kts
23/11:00am 25.7 22.0 7.8 32 9.5 E 17 22 9 12 1016.1 - 0.0
23/10:30am 25.4 21.2 7.5 32 9.5 E 19 26 10 14 1016.4 1016.3 0.0
23/10:00am 24.5 21.3 10.0 40 8.0 E 17 24 9 13 1016.6 - 0.0
23/09:30am 24.2 20.8 6.0 31 9.3 SE 13 19 7 10 1016.7 1016.6 0.0
23/09:00am 23.6 20.9 5.5 31 9.1 SE 9 15 5 8 1016.4 1016.3 0.0
23/08:30am 22.7 20.2 6.5 35 8.3 SE 9 13 5 7 1016.3 1016.2 0.0
23/08:00am 21.8 19.8 7.2 39 7.5 SE 7 11 4 6 1016.3 - 0.0
23/07:30am 20.5 18.6 7.5 43 6.7 SE 7 9 4 5 1015.8 1015.7 0.0
23/07:00am 19.9 17.3 6.3 41 6.8 SE 9 15 5 8 1015.5 - 0.0
23/06:30am 19.6 17.7 7.4 45 6.2 SE 7 13 4 7 1015.1 1015.0 0.0
23/06:00am 19.9 17.6 7.3 44 6.4 SE 9 13 5 7 1014.8 1014.7 0.0
23/05:30am 20.4 17.5 6.7 41 6.9 SE 11 19 6 10 1014.6 1014.5 0.0
23/05:00am 20.5 17.8 7.2 42 6.8 SE 11 15 6 8 1014.7 - 0.0
23/04:30am 20.6 18.1 8.3 45 6.4 SE 11 19 6 10 1014.8 1014.7 0.0
23/04:00am 20.9 18.2 7.5 42 6.9 ESE 11 19 6 10 1014.8 - 0.0
23/03:30am 21.2 18.1 7.4 41 7.1 SE 13 19 7 10 1014.8 1014.7 0.0
23/03:00am 21.6 17.7 7.1 39 7.4 SE 17 22 9 12 1014.9 1014.8 0.0
23/02:30am 21.9 17.7 7.3 39 7.5 SE 19 30 10 16 1014.9 1014.8 0.0
23/02:00am 22.1 18.1 8.2 41 7.3 ESE 19 33 10 18 1014.9 - 0.0
23/01:30am 22.4 19.0 9.2 43 7.1 ESE 17 26 9 14 1014.9 1014.8 0.0
23/01:00am 22.5 19.1 10.6 47 6.5 ESE 19 28 10 15 1015.2 - 0.0
23/12:30am 22.1 22.7 17.7 76 2.7 SE 11 22 6 12 1015.6 1015.5 0.0
23/12:00am 22.8 23.3 17.5 72 3.3 SE 11 17 6 9 1015.4 1015.3 0.0
 
Date/Time
CST
Temp
°C
App
Temp
°C
Dew
Point
Rel
Hum
%
Delta-T
°C
Wind Press
QNH
hPa
Press
MSL
hPa
Rain
since 9 am
mm
Dir
 
Spd
km/h
Gust
km/h
Spd
kts
Gust
kts
22/11:30pm 23.4 23.1 17.4 69 3.7 E 15 19 8 10 1015.4 1015.3 0.0
22/11:00pm 21.9 23.5 18.3 80 2.3 E 7 15 4 8 1015.2 - 0.0
22/10:30pm 19.5 21.5 16.0 80 2.1 CALM 0 4 0 2 1015.1 1015.0 0.0
22/10:00pm 19.8 21.7 15.7 77 2.4 CALM 0 0 0 0 1015.0 - 0.0
22/09:30pm 20.6 22.1 15.6 73 3.0 ENE 2 4 1 2 1014.8 1014.7 0.0
22/09:00pm 20.9 22.1 15.9 73 3.0 E 4 6 2 3 1014.4 1014.3 0.0
22/08:30pm 21.5 22.6 15.6 69 3.5 ENE 4 6 2 3 1014.2 1014.1 0.0
22/08:00pm 22.4 23.5 15.5 65 4.1 ENE 4 7 2 4 1013.9 - 0.0
22/07:30pm 22.8 23.1 14.6 60 4.8 E 6 7 3 4 1013.5 1013.4 0.0
22/07:00pm 23.5 23.9 13.7 54 5.7 E 4 7 2 4 1013.1 - 0.0
22/06:30pm 24.4 24.2 13.0 49 6.6 ENE 6 9 3 5 1012.7 1012.6 0.0
22/06:00pm 25.3 24.3 11.1 41 8.0 ENE 7 13 4 7 1012.4 1012.3 0.0
22/05:30pm 25.8 24.5 12.6 44 7.6 NE 11 20 6 11 1012.2 1012.1 0.0
22/05:00pm 26.3 24.2 9.6 35 9.2 NE 11 17 6 9 1012.2 - 0.0
22/04:30pm 26.4 23.5 9.7 35 9.2 ENE 15 24 8 13 1012.1 1012.0 0.0
22/04:00pm 26.9 24.9 11.4 38 8.8 ENE 13 22 7 12 1012.1 - 0.0
22/03:30pm 26.9 23.8 10.2 35 9.3 E 17 26 9 14 1012.2 1012.1 0.0
22/03:00pm 27.1 23.3 9.0 32 9.9 E 19 28 10 15 1012.5 1012.4 0.0
22/02:30pm 26.9 23.8 10.2 35 9.3 ENE 17 28 9 15 1012.9 1012.8 0.0
22/02:00pm 27.5 24.1 9.3 32 10.0 E 17 24 9 13 1013.4 - 0.0
22/01:30pm 27.8 24.0 7.6 28 10.9 E 17 24 9 13 1013.8 1013.7 0.0
22/01:00pm 27.6 24.0 8.5 30 10.4 E 17 24 9 13 1014.3 - 0.0
22/12:30pm 28.5 23.1 4.7 22 12.2 E 22 30 12 16 1014.8 1014.7 0.0
22/12:00pm 27.9 22.6 6.6 26 11.2 E 24 33 13 18 1015.3 1015.2 0.0
22/11:30am 27.6 22.2 6.4 26 11.1 ESE 24 33 13 18 1015.8 1015.7 0.0
22/11:00am 27.2 22.3 7.1 28 10.7 ESE 22 33 12 18 1016.3 - 0.0
22/10:30am 25.5 21.9 9.7 37 8.7 ESE 19 26 10 14 1016.9 1016.8 0.0
22/10:00am 24.5 21.1 11.1 43 7.5 ESE 20 26 11 14 1017.2 - 0.0
22/09:30am 23.5 20.1 11.2 46 6.9 ESE 20 28 11 15 1017.2 1017.1 0.0
22/09:00am 22.7 19.8 12.3 52 5.9 ESE 19 30 10 16 1017.1 1017.0 0.0
22/08:30am 22.2 20.3 13.0 56 5.3 SE 15 20 8 11 1017.1 1017.0 0.0
22/08:00am 21.8 20.1 13.7 60 4.7 SE 15 22 8 12 1017.0 - 0.0
22/07:30am 21.2 18.9 12.9 59 4.7 ESE 17 22 9 12 1016.7 1016.6 0.0
22/07:00am 20.5 18.8 12.5 60 4.5 ESE 13 19 7 10 1016.4 - 0.0
22/06:30am 20.5 18.3 12.0 58 4.7 SE 15 24 8 13 1016.1 1016.0 0.0
22/06:00am 20.2 18.2 11.4 57 4.8 SE 13 19 7 10 1015.8 1015.7 0.0
22/05:30am 20.6 18.6 11.5 56 5.0 SE 13 17 7 9 1015.4 1015.3 0.0
22/05:00am 21.0 19.0 11.6 55 5.2 SE 13 19 7 10 1015.2 - 0.0
22/04:30am 21.1 19.2 11.7 55 5.2 SE 13 20 7 11 1015.0 1014.9 0.0
22/04:00am 21.5 19.2 11.8 54 5.4 SE 15 20 8 11 1015.1 - 0.0
22/03:30am 21.5 19.5 11.5 53 5.6 SE 13 19 7 10 1015.2 1015.1 0.0
22/03:00am 21.5 19.8 12.4 56 5.1 SE 13 17 7 9 1015.4 1015.3 0.0
22/02:30am 21.6 20.4 14.0 62 4.4 SE 13 19 7 10 1015.6 1015.5 0.0
22/02:00am 21.9 21.4 16.0 69 3.6 SE 13 17 7 9 1015.7 - 0.0
22/01:30am 22.6 21.4 15.0 62 4.5 ESE 15 20 8 11 1015.7 1015.6 0.0
22/01:00am 23.4 21.0 14.4 57 5.3 ESE 20 28 11 15 1015.8 - 0.0
22/12:30am 23.9 22.4 16.7 64 4.4 E 20 30 11 16 1015.8 1015.7 0.0
22/12:00am 23.4 24.6 19.1 77 2.7 E 11 19 6 10 1015.9 1015.8 0.0
 
Date/Time
CST
Temp
°C
App
Temp
°C
Dew
Point
Rel
Hum
%
Delta-T
°C
Wind Press
QNH
hPa
Press
MSL
hPa
Rain
since 9 am
mm
Dir
 
Spd
km/h
Gust
km/h
Spd
kts
Gust
kts
21/11:30pm 22.6 24.6 18.8 79 2.4 ENE 6 11 3 6 1015.9 1015.8 0.0
21/11:00pm 22.0 24.1 18.0 78 2.5 ENE 4 6 2 3 1015.9 - 0.0
21/10:30pm 21.6 23.6 17.8 79 2.4 E 4 6 2 3 1015.8 1015.7 0.0
21/10:00pm 21.3 23.0 17.1 77 2.6 E 4 6 2 3 1015.6 - 0.0
21/09:30pm 22.1 24.0 16.8 72 3.2 E 2 4 1 2 1015.4 1015.3 0.0
21/09:00pm 22.8 24.0 16.8 69 3.7 E 6 7 3 4 1015.0 1014.9 0.0
21/08:30pm 23.0 24.2 16.8 68 3.8 E 6 7 3 4 1014.7 1014.6 0.0
21/08:00pm 23.1 23.9 15.9 64 4.4 ENE 6 7 3 4 1014.4 - 0.0
21/07:30pm 23.5 24.2 15.5 60 4.8 ENE 6 7 3 4 1014.1 1014.0 0.0
21/07:00pm 23.8 24.4 15.3 59 5.1 ENE 6 9 3 5 1013.6 - 0.0
21/06:30pm 24.4 24.4 15.1 56 5.6 ENE 9 15 5 8 1013.2 1013.1 0.0
21/06:00pm 25.1 24.3 13.9 49 6.6 ENE 11 22 6 12 1012.8 1012.7 0.0
21/05:30pm 25.6 24.6 13.5 47 7.1 NE 11 20 6 11 1012.5 1012.4 0.0
21/05:00pm 26.5 25.8 14.3 47 7.3 ENE 11 19 6 10 1012.3 - 0.0
21/04:30pm 26.9 25.1 12.2 40 8.5 ENE 13 26 7 14 1012.1 1012.0 0.0
21/04:00pm 27.0 24.7 11.9 39 8.7 E 15 26 8 14 1012.2 - 0.0
21/03:30pm 27.7 24.9 11.3 36 9.4 E 17 26 9 14 1012.5 1012.4 0.0
21/03:00pm 27.0 23.4 10.7 36 9.2 E 20 32 11 17 1012.7 1012.6 0.0
21/02:30pm 27.1 23.9 11.2 37 9.0 E 19 30 10 16 1013.1 1013.0 0.0
21/02:00pm 27.1 24.4 11.6 38 8.9 E 17 24 9 13 1013.6 - 0.0
21/01:30pm 27.9 25.5 11.5 36 9.4 ENE 15 26 8 14 1014.0 1013.9 0.0
21/01:00pm 27.7 24.4 10.9 35 9.5 E 19 28 10 15 1014.6 - 0.0
21/12:30pm 27.5 24.4 11.5 37 9.2 E 19 26 10 14 1015.0 1014.9 0.0
21/12:00pm 28.2 22.9 8.5 29 10.8 ESE 26 33 14 18 1015.4 1015.3 0.0
21/11:30am 27.6 22.6 8.0 29 10.6 ESE 24 32 13 17 1015.7 1015.6 0.0
21/11:00am 27.7 23.7 10.4 34 9.7 ESE 22 35 12 19 1016.1 - 0.0
21/10:30am 25.8 22.3 10.8 39 8.4 ESE 20 26 11 14 1016.4 1016.3 0.0
21/10:00am 25.1 22.0 12.3 45 7.3 ESE 20 28 11 15 1016.4 - 0.0
21/09:30am 24.1 20.9 11.8 46 7.0 ESE 20 26 11 14 1016.5 1016.4 0.0
21/09:00am 23.1 20.7 12.7 52 5.9 ESE 17 24 9 13 1016.3 1016.2 0.0
21/08:30am 22.7 21.1 14.0 58 5.1 SE 15 24 8 13 1016.1 1016.0 0.0
21/08:00am 22.1 20.7 14.5 62 4.5 SE 15 22 8 12 1015.8 - 0.0
21/07:30am 21.1 19.8 14.7 67 3.8 ESE 15 22 8 12 1015.4 1015.3 0.0
21/07:00am 20.5 19.5 14.6 69 3.4 SE 13 19 7 10 1015.1 - 0.0
21/06:30am 20.8 19.5 14.7 68 3.6 SE 15 20 8 11 1014.6 1014.5 0.0
21/06:00am 21.0 20.1 14.9 68 3.6 SE 13 19 7 10 1014.2 1014.1 0.0
21/05:30am 21.1 20.1 14.5 66 3.9 ESE 13 19 7 10 1014.0 1013.9 0.0
21/05:00am 21.4 20.4 14.6 65 4.0 ESE 13 20 7 11 1013.8 - 0.0
21/04:30am 21.3 21.8 17.5 79 2.3 ESE 11 15 6 8 1013.7 1013.6 0.0
21/04:00am 21.0 22.1 17.2 79 2.3 SE 7 11 4 6 1013.5 - 0.0
21/03:30am 21.0 22.0 16.8 77 2.6 SSE 7 11 4 6 1013.5 1013.4 0.0
21/03:00am 21.3 22.5 17.3 78 2.5 SSE 7 11 4 6 1013.8 1013.7 0.0
21/02:30am 21.2 22.8 17.8 81 2.1 SSE 6 9 3 5 1014.2 1014.1 0.0
21/02:00am 21.3 22.4 18.1 82 2.0 SSE 9 13 5 7 1014.3 - 0.0
21/01:30am 21.1 22.8 18.5 85 1.6 SSE 7 11 4 6 1014.5 1014.4 0.0
21/01:00am 20.6 22.5 18.5 88 1.3 SSE 6 9 3 5 1014.6 - 0.0
21/12:30am 20.3 22.2 18.6 90 1.1 S 6 7 3 4 1014.8 1014.7 0.0
21/12:00am 19.4 21.9 17.2 87 1.3 CALM 0 4 0 2 1014.8 1014.7 0.0
 
Date/Time
CST
Temp
°C
App
Temp
°C
Dew
Point
Rel
Hum
%
Delta-T
°C
Wind Press
QNH
hPa
Press
MSL
hPa
Rain
since 9 am
mm
Dir
 
Spd
km/h
Gust
km/h
Spd
kts
Gust
kts
20/11:30pm 19.4 21.6 16.6 84 1.7 CALM 0 0 0 0 1015.0 1014.9 0.0
20/11:00pm 19.4 21.6 16.4 83 1.8 CALM 0 0 0 0 1015.0 - 0.0
20/10:30pm 19.6 21.8 16.4 82 1.9 CALM 0 0 0 0 1014.9 1014.8 0.0
20/10:00pm 19.7 21.8 16.2 80 2.1 CALM 0 0 0 0 1015.0 - 0.0
20/09:30pm 19.9 22.0 16.2 79 2.2 CALM 0 0 0 0 1015.0 1014.9 0.0
20/09:00pm 20.4 22.6 16.4 78 2.4 CALM 0 2 0 1 1015.0 1014.9 0.0
20/08:30pm 20.6 22.6 16.0 75 2.8 CALM 0 4 0 2 1014.8 1014.7 0.0
20/08:00pm 21.3 23.3 16.0 72 3.2 CALM 0 0 0 0 1014.5 - 0.0
20/07:30pm 22.1 23.7 15.9 68 3.7 NE 2 4 1 2 1014.1 1014.0 0.0
20/07:00pm 23.2 24.4 16.0 64 4.4 NE 4 6 2 3 1013.7 - 0.0
20/06:30pm 24.0 24.6 15.2 58 5.3 NNE 6 9 3 5 1013.5 1013.4 0.0
20/06:00pm 25.0 25.2 14.2 51 6.4 NE 6 11 3 6 1013.3 1013.2 0.0
20/05:30pm 25.6 25.2 13.1 46 7.3 NE 7 13 4 7 1013.1 1013.0 0.0
20/05:00pm 26.2 24.8 12.3 42 8.0 NE 11 15 6 8 1013.0 - 0.0
20/04:30pm 26.8 25.2 11.7 39 8.7 ENE 11 19 6 10 1012.9 1012.8 0.0
20/04:00pm 27.4 25.8 11.4 37 9.1 NE 11 22 6 12 1012.9 - 0.0
20/03:30pm 27.6 25.5 11.2 36 9.4 ENE 13 19 7 10 1013.0 1012.9 0.0
20/03:00pm 27.5 24.5 10.7 35 9.5 E 17 22 9 12 1013.3 1013.2 0.0
20/02:30pm 27.4 24.7 10.2 34 9.6 E 15 26 8 14 1013.7 1013.6 0.0
20/02:00pm 27.4 24.0 9.3 32 10.0 ENE 17 30 9 16 1014.3 - 0.0
20/01:30pm 27.2 24.0 10.0 34 9.6 E 17 30 9 16 1014.9 1014.8 0.0
20/01:00pm 26.9 23.6 9.7 34 9.5 E 17 26 9 14 1015.4 - 0.0
20/12:30pm 25.5 23.6 11.7 42 7.8 E 13 19 7 10 1015.8 1015.7 0.0
20/12:00pm 25.5 23.6 11.7 42 7.8 E 13 19 7 10 1016.4 1016.3 0.0
20/11:30am 25.7 24.0 12.5 44 7.6 E 13 20 7 11 1016.8 1016.7 0.0

Other Formats:

Comma delimited format used in spreadsheet applications
http://www.bom.gov.au/fwo/IDD60801/IDD60801.94139.axf

JavaScript Object Notation format (JSON) in row-major order
http://www.bom.gov.au/fwo/IDD60801/IDD60801.94139.json